JTA121 RJBB-ROMY
Flight info
| Callsign | JTA121 |
|---|---|
| Flight time | 2h 19m |
| Altitude | 36000 |
| Route | OBLUR Y236 MULAB Y75 SWANO Y26 YURIX Y62 GANAS Y576 YUTAH |
| Aircraft | B738/M-SDE2E3FGHIRWXY/LB1 |
Departure
| Time | 2026-05-06 06:30 |
|---|---|
| Airport | Kansai International Airport (RJBB) |
Arrival
| Time | 2026-05-06 08:49 |
|---|---|
| Airport | Miyako Airport (ROMY) |
| Time | Latitude | Longitude | Altitude | Speed | Heading |
|---|---|---|---|---|---|
| 2026-05-06 06:17 | 34.43190 | 135.24005 | 20 ft | 0 kts | 138° |
| 2026-05-06 06:17 | 34.43197 | 135.23997 | 21 ft | 2 kts | 138° |
| 2026-05-06 06:18 | 34.43207 | 135.23986 | 20 ft | 2 kts | 138° |
| 2026-05-06 06:18 | 34.43218 | 135.23975 | 21 ft | 2 kts | 139° |
| 2026-05-06 06:18 | 34.43228 | 135.23964 | 21 ft | 2 kts | 141° |
| 2026-05-06 06:18 | 34.43238 | 135.23955 | 18 ft | 2 kts | 149° |
| 2026-05-06 06:19 | 34.43245 | 135.23950 | 20 ft | 1 kts | 170° |
| 2026-05-06 06:19 | 34.43251 | 135.23950 | 19 ft | 1 kts | 198° |
| 2026-05-06 06:19 | 34.43256 | 135.23952 | 21 ft | 1 kts | 218° |
| 2026-05-06 06:19 | 34.43261 | 135.23957 | 21 ft | 1 kts | 226° |
| 2026-05-06 06:20 | 34.43264 | 135.23962 | 21 ft | 1 kts | 230° |
| 2026-05-06 06:20 | 34.43265 | 135.23963 | 20 ft | 0 kts | 230° |
| 2026-05-06 06:20 | 34.43263 | 135.23959 | 21 ft | 2 kts | 231° |
| 2026-05-06 06:21 | 34.43248 | 135.23937 | 19 ft | 5 kts | 231° |
| 2026-05-06 06:21 | 34.43232 | 135.23912 | 19 ft | 0 kts | 232° |
| 2026-05-06 06:21 | 34.43228 | 135.23907 | 19 ft | 2 kts | 232° |
| 2026-05-06 06:22 | 34.43212 | 135.23880 | 19 ft | 6 kts | 238° |
| 2026-05-06 06:22 | 34.43202 | 135.23821 | 19 ft | 9 kts | 265° |
| 2026-05-06 06:22 | 34.43193 | 135.23729 | 18 ft | 14 kts | 239° |
| 2026-05-06 06:22 | 34.43120 | 135.23621 | 14 ft | 18 kts | 230° |
| 2026-05-06 06:23 | 34.43029 | 135.23488 | 12 ft | 23 kts | 232° |
| 2026-05-06 06:23 | 34.42935 | 135.23339 | 14 ft | 19 kts | 232° |
| 2026-05-06 06:23 | 34.42960 | 135.23218 | 18 ft | 17 kts | 321° |
| 2026-05-06 06:23 | 34.43058 | 135.23122 | 20 ft | 19 kts | 321° |
| 2026-05-06 06:24 | 34.43161 | 135.23023 | 23 ft | 19 kts | 321° |
| 2026-05-06 06:24 | 34.43260 | 135.22926 | 28 ft | 18 kts | 321° |
| 2026-05-06 06:24 | 34.43357 | 135.22832 | 29 ft | 18 kts | 321° |
| 2026-05-06 06:24 | 34.43463 | 135.22728 | 29 ft | 21 kts | 321° |
| 2026-05-06 06:25 | 34.43583 | 135.22610 | 29 ft | 23 kts | 321° |
| 2026-05-06 06:25 | 34.43713 | 135.22484 | 29 ft | 25 kts | 321° |
| 2026-05-06 06:25 | 34.43723 | 135.22252 | 28 ft | 20 kts | 231° |
| 2026-05-06 06:26 | 34.43630 | 135.22113 | 28 ft | 22 kts | 231° |
| 2026-05-06 06:26 | 34.43527 | 135.21959 | 26 ft | 25 kts | 231° |
| 2026-05-06 06:26 | 34.43417 | 135.21797 | 29 ft | 24 kts | 230° |
| 2026-05-06 06:26 | 34.43315 | 135.21645 | 29 ft | 23 kts | 231° |
| 2026-05-06 06:27 | 34.43216 | 135.21498 | 30 ft | 22 kts | 230° |
| 2026-05-06 06:27 | 34.43111 | 135.21345 | 26 ft | 25 kts | 231° |
| 2026-05-06 06:27 | 34.43007 | 135.21187 | 26 ft | 24 kts | 231° |
| 2026-05-06 06:27 | 34.42897 | 135.21022 | 23 ft | 25 kts | 231° |
| 2026-05-06 06:28 | 34.42791 | 135.20866 | 24 ft | 23 kts | 230° |
| 2026-05-06 06:28 | 34.42779 | 135.20721 | 27 ft | 18 kts | 316° |
| 2026-05-06 06:28 | 34.42868 | 135.20639 | 25 ft | 6 kts | 351° |
| 2026-05-06 06:28 | 34.42900 | 135.20666 | 22 ft | 6 kts | 72° |
| 2026-05-06 06:29 | 34.42922 | 135.20718 | 22 ft | 8 kts | 51° |
| 2026-05-06 06:29 | 34.42945 | 135.20753 | 22 ft | 23 kts | 51° |
| 2026-05-06 06:29 | 34.43203 | 135.21136 | 28 ft | 93 kts | 51° |
| 2026-05-06 06:29 | 34.43739 | 135.21930 | 27 ft | 149 kts | 50° |
| 2026-05-06 06:30 | 34.44484 | 135.22998 | 283 ft | 175 kts | 50° |
| 2026-05-06 06:30 | 34.45244 | 135.24164 | 961 ft | 181 kts | 47° |
| 2026-05-06 06:30 | 34.46355 | 135.24944 | 1578 ft | 191 kts | 11° |
| 2026-05-06 06:30 | 34.47666 | 135.24727 | 2236 ft | 203 kts | 331° |
| 2026-05-06 06:31 | 34.48609 | 135.23480 | 2944 ft | 206 kts | 291° |
| 2026-05-06 06:31 | 34.48772 | 135.21726 | 3362 ft | 222 kts | 256° |
| 2026-05-06 06:31 | 34.48177 | 135.19895 | 3734 ft | 246 kts | 242° |
| 2026-05-06 06:31 | 34.47464 | 135.17936 | 4408 ft | 259 kts | 246° |
| 2026-05-06 06:32 | 34.46814 | 135.15889 | 5324 ft | 262 kts | 248° |
| 2026-05-06 06:32 | 34.46200 | 135.13802 | 6193 ft | 265 kts | 249° |
| 2026-05-06 06:32 | 34.45604 | 135.11670 | 6992 ft | 268 kts | 250° |
| 2026-05-06 06:32 | 34.45019 | 135.09504 | 7745 ft | 272 kts | 251° |
| 2026-05-06 06:33 | 34.44437 | 135.07305 | 8496 ft | 276 kts | 251° |
| 2026-05-06 06:33 | 34.43853 | 135.05073 | 9255 ft | 280 kts | 252° |
| 2026-05-06 06:33 | 34.43266 | 135.02809 | 10042 ft | 284 kts | 252° |
| 2026-05-06 06:33 | 34.42664 | 135.00479 | 10468 ft | 300 kts | 252° |
| 2026-05-06 06:34 | 34.42020 | 134.97981 | 10629 ft | 322 kts | 252° |
| 2026-05-06 06:34 | 34.41330 | 134.95304 | 10793 ft | 343 kts | 252° |
| 2026-05-06 06:34 | 34.40597 | 134.92465 | 10936 ft | 363 kts | 252° |
| 2026-05-06 06:34 | 34.39645 | 134.89569 | 11154 ft | 377 kts | 242° |
| 2026-05-06 06:35 | 34.38326 | 134.86802 | 11664 ft | 381 kts | 239° |
| 2026-05-06 06:35 | 34.36953 | 134.84047 | 12307 ft | 382 kts | 239° |
| 2026-05-06 06:35 | 34.35588 | 134.81288 | 12923 ft | 385 kts | 240° |
| 2026-05-06 06:35 | 34.34223 | 134.78485 | 13541 ft | 388 kts | 240° |
| 2026-05-06 06:36 | 34.32861 | 134.75654 | 14119 ft | 391 kts | 240° |
| 2026-05-06 06:36 | 34.31499 | 134.72803 | 14732 ft | 391 kts | 241° |
| 2026-05-06 06:36 | 34.30139 | 134.69953 | 15384 ft | 391 kts | 241° |
| 2026-05-06 06:36 | 34.28781 | 134.67112 | 16037 ft | 391 kts | 240° |
| 2026-05-06 06:37 | 34.27261 | 134.64374 | 16653 ft | 394 kts | 233° |
| 2026-05-06 06:37 | 34.25484 | 134.61840 | 17249 ft | 396 kts | 230° |
| 2026-05-06 06:37 | 34.23658 | 134.59341 | 17833 ft | 397 kts | 230° |
| 2026-05-06 06:37 | 34.21849 | 134.56822 | 18418 ft | 398 kts | 231° |
| 2026-05-06 06:38 | 34.20053 | 134.54272 | 18938 ft | 398 kts | 232° |
| 2026-05-06 06:38 | 34.18268 | 134.51713 | 19488 ft | 397 kts | 232° |
| 2026-05-06 06:38 | 34.16496 | 134.49166 | 20111 ft | 394 kts | 232° |
| 2026-05-06 06:38 | 34.14759 | 134.46668 | 20664 ft | 393 kts | 232° |
| 2026-05-06 06:39 | 34.13001 | 134.44141 | 21143 ft | 393 kts | 232° |
| 2026-05-06 06:39 | 34.11223 | 134.41589 | 21611 ft | 393 kts | 232° |
| 2026-05-06 06:39 | 34.09486 | 134.39101 | 22069 ft | 392 kts | 232° |
| 2026-05-06 06:39 | 34.07727 | 134.36580 | 22501 ft | 392 kts | 232° |
| 2026-05-06 06:40 | 34.05982 | 134.34058 | 22905 ft | 393 kts | 232° |
| 2026-05-06 06:40 | 34.04234 | 134.31523 | 23236 ft | 394 kts | 232° |
| 2026-05-06 06:40 | 34.02479 | 134.28978 | 23560 ft | 395 kts | 232° |
| 2026-05-06 06:40 | 34.00725 | 134.26432 | 23895 ft | 395 kts | 233° |
| 2026-05-06 06:41 | 33.98967 | 134.23883 | 24143 ft | 396 kts | 232° |
| 2026-05-06 06:41 | 33.97207 | 134.21333 | 24470 ft | 395 kts | 232° |
| 2026-05-06 06:41 | 33.95451 | 134.18787 | 24770 ft | 395 kts | 232° |
| 2026-05-06 06:41 | 33.93684 | 134.16239 | 24953 ft | 398 kts | 232° |
| 2026-05-06 06:42 | 33.91903 | 134.13675 | 25140 ft | 400 kts | 232° |
| 2026-05-06 06:42 | 33.90124 | 134.11104 | 25434 ft | 399 kts | 232° |
| 2026-05-06 06:42 | 33.88353 | 134.08541 | 25665 ft | 400 kts | 232° |
| 2026-05-06 06:42 | 33.86568 | 134.05956 | 25847 ft | 403 kts | 232° |
| 2026-05-06 06:43 | 33.84775 | 134.03362 | 26072 ft | 403 kts | 232° |
| 2026-05-06 06:43 | 33.82980 | 134.00766 | 26288 ft | 404 kts | 232° |
| 2026-05-06 06:43 | 33.81190 | 133.98173 | 26468 ft | 404 kts | 232° |
| 2026-05-06 06:43 | 33.79395 | 133.95563 | 26666 ft | 404 kts | 232° |
| 2026-05-06 06:44 | 33.77609 | 133.92967 | 26961 ft | 401 kts | 232° |
| 2026-05-06 06:44 | 33.75848 | 133.90375 | 27149 ft | 400 kts | 233° |
| 2026-05-06 06:44 | 33.74189 | 133.87682 | 27223 ft | 400 kts | 234° |
| 2026-05-06 06:44 | 33.72560 | 133.84985 | 27425 ft | 399 kts | 235° |
| 2026-05-06 06:45 | 33.70964 | 133.82256 | 27687 ft | 399 kts | 235° |
| 2026-05-06 06:45 | 33.69364 | 133.79534 | 28037 ft | 398 kts | 235° |
| 2026-05-06 06:45 | 33.67768 | 133.76823 | 28462 ft | 395 kts | 234° |
| 2026-05-06 06:45 | 33.66185 | 133.74168 | 29000 ft | 389 kts | 234° |
| 2026-05-06 06:46 | 33.64604 | 133.71541 | 29329 ft | 388 kts | 234° |
| 2026-05-06 06:46 | 33.63023 | 133.68910 | 29591 ft | 389 kts | 234° |
| 2026-05-06 06:46 | 33.61446 | 133.66278 | 29893 ft | 388 kts | 234° |
| 2026-05-06 06:46 | 33.59875 | 133.63657 | 30250 ft | 385 kts | 234° |
| 2026-05-06 06:47 | 33.58318 | 133.61058 | 30554 ft | 384 kts | 234° |
| 2026-05-06 06:47 | 33.56760 | 133.58461 | 30816 ft | 383 kts | 234° |
| 2026-05-06 06:47 | 33.55205 | 133.55870 | 31092 ft | 382 kts | 234° |
| 2026-05-06 06:47 | 33.53653 | 133.53287 | 31366 ft | 381 kts | 233° |
| 2026-05-06 06:48 | 33.52109 | 133.50717 | 31597 ft | 380 kts | 233° |
| 2026-05-06 06:48 | 33.50560 | 133.48141 | 31909 ft | 379 kts | 233° |
| 2026-05-06 06:48 | 33.49025 | 133.45591 | 32218 ft | 377 kts | 233° |
| 2026-05-06 06:48 | 33.47491 | 133.43043 | 32484 ft | 376 kts | 232° |
| 2026-05-06 06:49 | 33.45959 | 133.40500 | 32747 ft | 376 kts | 232° |
| 2026-05-06 06:49 | 33.44428 | 133.37967 | 33011 ft | 376 kts | 232° |
| 2026-05-06 06:49 | 33.42898 | 133.35431 | 33308 ft | 375 kts | 232° |
| 2026-05-06 06:49 | 33.41351 | 133.32924 | 33610 ft | 373 kts | 230° |
| 2026-05-06 06:50 | 33.39738 | 133.30493 | 33901 ft | 372 kts | 229° |
| 2026-05-06 06:50 | 33.38104 | 133.28097 | 34195 ft | 371 kts | 229° |
| 2026-05-06 06:50 | 33.36474 | 133.25719 | 34440 ft | 370 kts | 229° |
| 2026-05-06 06:50 | 33.34869 | 133.23372 | 34672 ft | 369 kts | 229° |
| 2026-05-06 06:51 | 33.33248 | 133.20992 | 34888 ft | 369 kts | 229° |
| 2026-05-06 06:51 | 33.31632 | 133.18611 | 35102 ft | 368 kts | 230° |
| 2026-05-06 06:51 | 33.30000 | 133.16199 | 35253 ft | 370 kts | 230° |
| 2026-05-06 06:51 | 33.28401 | 133.13835 | 35370 ft | 371 kts | 230° |
| 2026-05-06 06:52 | 33.26774 | 133.11430 | 35486 ft | 372 kts | 230° |
| 2026-05-06 06:52 | 33.25147 | 133.09024 | 35603 ft | 371 kts | 230° |
| 2026-05-06 06:52 | 33.23526 | 133.06631 | 35734 ft | 371 kts | 230° |
| 2026-05-06 06:53 | 33.20273 | 133.01831 | 35889 ft | 372 kts | 230° |
| 2026-05-06 06:53 | 33.18647 | 132.99432 | 36071 ft | 371 kts | 230° |
| 2026-05-06 06:53 | 33.17024 | 132.97040 | 36079 ft | 370 kts | 230° |
| 2026-05-06 06:54 | 33.13784 | 132.92270 | 36121 ft | 370 kts | 230° |
| 2026-05-06 06:54 | 33.10522 | 132.87473 | 36116 ft | 373 kts | 230° |
| 2026-05-06 06:55 | 33.07245 | 132.82661 | 36117 ft | 375 kts | 230° |
| 2026-05-06 06:55 | 33.03951 | 132.77829 | 36110 ft | 375 kts | 230° |
| 2026-05-06 06:56 | 33.00542 | 132.73122 | 36099 ft | 376 kts | 227° |
| 2026-05-06 06:56 | 32.96954 | 132.68588 | 36112 ft | 376 kts | 226° |
| 2026-05-06 06:57 | 32.93364 | 132.64061 | 36106 ft | 376 kts | 226° |
| 2026-05-06 06:57 | 32.89779 | 132.59513 | 36096 ft | 376 kts | 226° |
| 2026-05-06 06:58 | 32.86199 | 132.54966 | 36103 ft | 376 kts | 226° |
| 2026-05-06 06:58 | 32.83227 | 132.51197 | 36104 ft | 376 kts | 226° |
| 2026-05-06 06:59 | 32.79635 | 132.46667 | 36099 ft | 376 kts | 226° |
| 2026-05-06 06:59 | 32.76041 | 132.42153 | 36100 ft | 376 kts | 226° |
| 2026-05-06 07:00 | 32.72439 | 132.37633 | 36104 ft | 377 kts | 226° |
| 2026-05-06 07:00 | 32.68837 | 132.33117 | 36105 ft | 377 kts | 226° |
| 2026-05-06 07:01 | 32.65223 | 132.28591 | 36101 ft | 378 kts | 226° |
| 2026-05-06 07:01 | 32.61602 | 132.24060 | 36100 ft | 378 kts | 226° |
| 2026-05-06 07:02 | 32.57979 | 132.19533 | 36097 ft | 379 kts | 226° |
| 2026-05-06 07:02 | 32.54347 | 132.14999 | 36102 ft | 379 kts | 226° |
| 2026-05-06 07:03 | 32.50715 | 132.10471 | 36102 ft | 380 kts | 226° |
| 2026-05-06 07:03 | 32.47066 | 132.05996 | 36093 ft | 380 kts | 223° |
| 2026-05-06 07:04 | 32.42803 | 132.02276 | 36096 ft | 383 kts | 213° |
| 2026-05-06 07:04 | 32.38218 | 131.99066 | 36092 ft | 384 kts | 213° |
| 2026-05-06 07:05 | 32.33626 | 131.95848 | 36093 ft | 384 kts | 213° |
| 2026-05-06 07:05 | 32.29026 | 131.92612 | 36090 ft | 385 kts | 213° |
| 2026-05-06 07:06 | 32.24422 | 131.89368 | 36088 ft | 385 kts | 213° |
| 2026-05-06 07:06 | 32.19817 | 131.86127 | 36093 ft | 386 kts | 213° |
| 2026-05-06 07:07 | 32.15198 | 131.82880 | 36093 ft | 386 kts | 213° |
| 2026-05-06 07:07 | 32.10577 | 131.79635 | 36093 ft | 387 kts | 213° |
| 2026-05-06 07:08 | 32.05946 | 131.76386 | 36096 ft | 388 kts | 213° |
| 2026-05-06 07:08 | 32.01306 | 131.73134 | 36096 ft | 388 kts | 213° |
| 2026-05-06 07:09 | 31.96665 | 131.69887 | 36101 ft | 388 kts | 213° |
| 2026-05-06 07:09 | 31.92010 | 131.66634 | 36102 ft | 389 kts | 213° |
| 2026-05-06 07:10 | 31.87341 | 131.63377 | 36093 ft | 390 kts | 213° |
| 2026-05-06 07:10 | 31.82675 | 131.60125 | 36095 ft | 390 kts | 213° |
| 2026-05-06 07:11 | 31.78002 | 131.56870 | 36099 ft | 391 kts | 213° |
| 2026-05-06 07:11 | 31.73351 | 131.53634 | 36101 ft | 391 kts | 213° |
| 2026-05-06 07:12 | 31.68635 | 131.50358 | 36099 ft | 392 kts | 213° |
| 2026-05-06 07:12 | 31.63966 | 131.47117 | 36096 ft | 392 kts | 213° |
| 2026-05-06 07:13 | 31.59265 | 131.43858 | 36091 ft | 393 kts | 213° |
| 2026-05-06 07:13 | 31.54549 | 131.40593 | 36088 ft | 394 kts | 213° |
| 2026-05-06 07:14 | 31.49836 | 131.37333 | 36081 ft | 394 kts | 213° |
| 2026-05-06 07:14 | 31.45112 | 131.34070 | 36079 ft | 394 kts | 213° |
| 2026-05-06 07:15 | 31.40388 | 131.30810 | 36086 ft | 395 kts | 213° |
| 2026-05-06 07:15 | 31.35647 | 131.27543 | 36079 ft | 395 kts | 213° |
| 2026-05-06 07:16 | 31.30899 | 131.24276 | 36075 ft | 396 kts | 213° |
| 2026-05-06 07:16 | 31.26149 | 131.21010 | 36077 ft | 396 kts | 213° |
| 2026-05-06 07:17 | 31.21397 | 131.17747 | 36070 ft | 397 kts | 213° |
| 2026-05-06 07:17 | 31.16639 | 131.14484 | 36069 ft | 397 kts | 213° |
| 2026-05-06 07:18 | 31.11870 | 131.11216 | 36069 ft | 397 kts | 213° |
| 2026-05-06 07:18 | 31.07095 | 131.07949 | 36062 ft | 398 kts | 213° |
| 2026-05-06 07:19 | 31.02321 | 131.04686 | 36061 ft | 398 kts | 212° |
| 2026-05-06 07:19 | 30.97565 | 131.01440 | 36061 ft | 399 kts | 212° |
| 2026-05-06 07:20 | 30.92778 | 130.98175 | 36062 ft | 399 kts | 212° |
| 2026-05-06 07:20 | 30.87978 | 130.94906 | 36061 ft | 400 kts | 212° |
| 2026-05-06 07:21 | 30.83179 | 130.91642 | 36068 ft | 400 kts | 212° |
| 2026-05-06 07:21 | 30.78369 | 130.88374 | 36066 ft | 400 kts | 212° |
| 2026-05-06 07:22 | 30.73563 | 130.85112 | 36069 ft | 400 kts | 212° |
| 2026-05-06 07:22 | 30.68744 | 130.81845 | 36074 ft | 401 kts | 212° |
| 2026-05-06 07:23 | 30.63924 | 130.78581 | 36068 ft | 401 kts | 212° |
| 2026-05-06 07:23 | 30.59107 | 130.75323 | 36074 ft | 401 kts | 212° |
| 2026-05-06 07:24 | 30.54281 | 130.72062 | 36057 ft | 401 kts | 212° |
| 2026-05-06 07:24 | 30.49459 | 130.68808 | 36061 ft | 402 kts | 212° |
| 2026-05-06 07:25 | 30.44623 | 130.65549 | 36056 ft | 402 kts | 212° |
| 2026-05-06 07:25 | 30.39791 | 130.62294 | 36048 ft | 402 kts | 212° |
| 2026-05-06 07:26 | 30.34949 | 130.59038 | 36070 ft | 402 kts | 212° |
| 2026-05-06 07:26 | 30.30105 | 130.55788 | 36056 ft | 403 kts | 212° |
| 2026-05-06 07:27 | 30.25243 | 130.52532 | 36041 ft | 404 kts | 212° |
| 2026-05-06 07:27 | 30.20376 | 130.49274 | 36044 ft | 404 kts | 212° |
| 2026-05-06 07:28 | 30.15537 | 130.46037 | 36037 ft | 404 kts | 212° |
| 2026-05-06 07:28 | 30.08240 | 130.41163 | 36038 ft | 404 kts | 212° |
| 2026-05-06 07:29 | 30.03373 | 130.37916 | 36034 ft | 404 kts | 212° |
| 2026-05-06 07:29 | 29.98504 | 130.34674 | 36035 ft | 404 kts | 212° |
| 2026-05-06 07:30 | 29.93641 | 130.31440 | 36035 ft | 404 kts | 212° |
| 2026-05-06 07:30 | 29.88776 | 130.28207 | 36030 ft | 404 kts | 212° |
| 2026-05-06 07:31 | 29.83903 | 130.24972 | 36029 ft | 404 kts | 211° |
| 2026-05-06 07:31 | 29.79023 | 130.21735 | 36029 ft | 405 kts | 211° |
| 2026-05-06 07:32 | 29.74145 | 130.18503 | 36028 ft | 405 kts | 211° |
| 2026-05-06 07:32 | 29.69255 | 130.15267 | 36026 ft | 405 kts | 211° |
| 2026-05-06 07:33 | 29.64360 | 130.12030 | 36026 ft | 406 kts | 211° |
| 2026-05-06 07:33 | 29.59471 | 130.08788 | 36022 ft | 406 kts | 213° |
| 2026-05-06 07:34 | 29.55098 | 130.04721 | 36024 ft | 405 kts | 226° |
| 2026-05-06 07:34 | 29.51224 | 130.00017 | 36020 ft | 406 kts | 226° |
| 2026-05-06 07:35 | 29.47352 | 129.95344 | 36023 ft | 407 kts | 226° |
| 2026-05-06 07:35 | 29.43441 | 129.90653 | 36025 ft | 407 kts | 225° |
| 2026-05-06 07:36 | 29.39516 | 129.85957 | 36024 ft | 408 kts | 225° |
| 2026-05-06 07:36 | 29.35589 | 129.81267 | 36027 ft | 408 kts | 225° |
| 2026-05-06 07:37 | 29.31652 | 129.76570 | 36025 ft | 408 kts | 225° |
| 2026-05-06 07:37 | 29.27712 | 129.71875 | 36025 ft | 409 kts | 225° |
| 2026-05-06 07:38 | 29.23770 | 129.67182 | 36024 ft | 409 kts | 225° |
| 2026-05-06 07:38 | 29.19829 | 129.62497 | 36026 ft | 409 kts | 225° |
| 2026-05-06 07:39 | 29.15879 | 129.57806 | 36022 ft | 409 kts | 225° |
| 2026-05-06 07:39 | 29.11934 | 129.53127 | 36023 ft | 409 kts | 225° |
| 2026-05-06 07:40 | 29.07979 | 129.48441 | 36027 ft | 409 kts | 225° |
| 2026-05-06 07:40 | 29.04024 | 129.43759 | 36025 ft | 409 kts | 225° |
| 2026-05-06 07:41 | 29.00072 | 129.39088 | 36024 ft | 409 kts | 225° |
| 2026-05-06 07:41 | 28.96125 | 129.34399 | 36024 ft | 409 kts | 226° |
| 2026-05-06 07:42 | 28.92202 | 129.29694 | 36033 ft | 409 kts | 226° |
| 2026-05-06 07:42 | 28.88271 | 129.24983 | 36026 ft | 410 kts | 226° |
| 2026-05-06 07:43 | 28.84343 | 129.20284 | 36030 ft | 409 kts | 226° |
| 2026-05-06 07:43 | 28.80408 | 129.15586 | 36029 ft | 409 kts | 226° |
| 2026-05-06 07:44 | 28.76472 | 129.10892 | 36026 ft | 409 kts | 226° |
| 2026-05-06 07:44 | 28.72536 | 129.06205 | 36027 ft | 410 kts | 225° |
| 2026-05-06 07:45 | 28.68591 | 129.01511 | 36028 ft | 410 kts | 226° |
| 2026-05-06 07:45 | 28.64646 | 128.96823 | 36028 ft | 410 kts | 225° |
| 2026-05-06 07:46 | 28.60718 | 128.92160 | 36024 ft | 411 kts | 225° |
| 2026-05-06 07:46 | 28.56737 | 128.87441 | 36023 ft | 411 kts | 225° |
| 2026-05-06 07:47 | 28.52798 | 128.82776 | 36027 ft | 412 kts | 225° |
| 2026-05-06 07:47 | 28.48832 | 128.78085 | 36028 ft | 412 kts | 225° |
| 2026-05-06 07:48 | 28.44855 | 128.73386 | 36025 ft | 412 kts | 225° |
| 2026-05-06 07:48 | 28.41519 | 128.69448 | 36022 ft | 413 kts | 225° |
| 2026-05-06 07:49 | 28.37537 | 128.64753 | 36026 ft | 413 kts | 225° |
| 2026-05-06 07:49 | 28.33541 | 128.60047 | 36022 ft | 414 kts | 225° |
| 2026-05-06 07:50 | 28.29543 | 128.55344 | 36021 ft | 415 kts | 225° |
| 2026-05-06 07:50 | 28.25533 | 128.50630 | 36022 ft | 415 kts | 225° |
| 2026-05-06 07:51 | 28.21516 | 128.45915 | 36022 ft | 416 kts | 225° |
| 2026-05-06 07:51 | 28.17525 | 128.41239 | 36020 ft | 416 kts | 225° |
| 2026-05-06 07:52 | 28.13500 | 128.36530 | 36019 ft | 416 kts | 225° |
| 2026-05-06 07:52 | 28.09476 | 128.31825 | 36018 ft | 416 kts | 225° |
| 2026-05-06 07:53 | 28.05447 | 128.27120 | 36018 ft | 416 kts | 225° |
| 2026-05-06 07:53 | 28.01417 | 128.22417 | 36018 ft | 416 kts | 225° |
| 2026-05-06 07:54 | 27.97391 | 128.17724 | 36019 ft | 416 kts | 225° |
| 2026-05-06 07:54 | 27.93361 | 128.13032 | 36016 ft | 416 kts | 225° |
| 2026-05-06 07:55 | 27.89325 | 128.08339 | 36018 ft | 416 kts | 225° |
| 2026-05-06 07:55 | 27.85290 | 128.03653 | 36020 ft | 416 kts | 225° |
| 2026-05-06 07:56 | 27.81273 | 127.98993 | 36019 ft | 417 kts | 225° |
| 2026-05-06 07:56 | 27.77231 | 127.94308 | 36019 ft | 417 kts | 224° |
| 2026-05-06 07:57 | 27.73179 | 127.89617 | 36020 ft | 417 kts | 224° |
| 2026-05-06 07:57 | 27.69130 | 127.84935 | 36020 ft | 417 kts | 224° |
| 2026-05-06 07:58 | 27.65074 | 127.80250 | 36019 ft | 417 kts | 224° |
| 2026-05-06 07:58 | 27.61017 | 127.75569 | 36018 ft | 417 kts | 224° |
| 2026-05-06 07:59 | 27.56965 | 127.70899 | 36020 ft | 417 kts | 224° |
| 2026-05-06 07:59 | 27.52909 | 127.66227 | 36019 ft | 417 kts | 224° |
| 2026-05-06 08:00 | 27.48828 | 127.61605 | 36016 ft | 416 kts | 221° |
| 2026-05-06 08:00 | 27.44204 | 127.57703 | 36017 ft | 415 kts | 215° |
| 2026-05-06 08:01 | 27.39492 | 127.53942 | 36020 ft | 415 kts | 215° |
| 2026-05-06 08:01 | 27.34782 | 127.50163 | 36016 ft | 416 kts | 216° |
| 2026-05-06 08:02 | 27.30085 | 127.46378 | 36016 ft | 416 kts | 216° |
| 2026-05-06 08:02 | 27.25382 | 127.42587 | 36017 ft | 416 kts | 216° |
| 2026-05-06 08:03 | 27.20674 | 127.38793 | 36017 ft | 417 kts | 216° |
| 2026-05-06 08:03 | 27.15963 | 127.35002 | 36014 ft | 417 kts | 216° |
| 2026-05-06 08:04 | 27.11238 | 127.31204 | 36010 ft | 418 kts | 216° |
| 2026-05-06 08:04 | 27.06515 | 127.27411 | 36011 ft | 418 kts | 216° |
| 2026-05-06 08:05 | 27.01774 | 127.23608 | 36012 ft | 419 kts | 216° |
| 2026-05-06 08:05 | 26.97038 | 127.19814 | 36010 ft | 419 kts | 216° |
| 2026-05-06 08:06 | 26.92292 | 127.16015 | 36013 ft | 419 kts | 216° |
| 2026-05-06 08:06 | 26.87576 | 127.12243 | 36004 ft | 419 kts | 216° |
| 2026-05-06 08:07 | 26.82796 | 127.08426 | 36003 ft | 420 kts | 216° |
| 2026-05-06 08:07 | 26.78039 | 127.04630 | 36001 ft | 420 kts | 216° |
| 2026-05-06 08:08 | 26.73313 | 127.00863 | 36001 ft | 420 kts | 216° |
| 2026-05-06 08:08 | 26.68551 | 126.97071 | 36002 ft | 421 kts | 216° |
| 2026-05-06 08:09 | 26.63775 | 126.93272 | 35999 ft | 421 kts | 216° |
| 2026-05-06 08:09 | 26.58996 | 126.89474 | 35999 ft | 422 kts | 216° |
| 2026-05-06 08:10 | 26.54205 | 126.85671 | 35999 ft | 423 kts | 216° |
| 2026-05-06 08:10 | 26.49406 | 126.81865 | 36001 ft | 423 kts | 216° |
| 2026-05-06 08:11 | 26.44598 | 126.78056 | 36001 ft | 424 kts | 216° |
| 2026-05-06 08:11 | 26.39782 | 126.74244 | 35998 ft | 425 kts | 216° |
| 2026-05-06 08:12 | 26.35037 | 126.70328 | 35999 ft | 425 kts | 219° |
| 2026-05-06 08:12 | 26.30448 | 126.66141 | 36006 ft | 427 kts | 220° |
| 2026-05-06 08:13 | 26.25853 | 126.61933 | 35990 ft | 429 kts | 220° |
| 2026-05-06 08:13 | 26.21223 | 126.57735 | 35992 ft | 429 kts | 220° |
| 2026-05-06 08:14 | 26.16611 | 126.53569 | 35995 ft | 430 kts | 220° |
| 2026-05-06 08:14 | 26.11939 | 126.49343 | 35995 ft | 431 kts | 220° |
| 2026-05-06 08:15 | 26.07331 | 126.45138 | 35993 ft | 432 kts | 221° |
| 2026-05-06 08:15 | 26.02686 | 126.40902 | 35996 ft | 433 kts | 221° |
| 2026-05-06 08:16 | 25.98018 | 126.36656 | 35997 ft | 434 kts | 221° |
| 2026-05-06 08:16 | 25.93330 | 126.32420 | 35996 ft | 435 kts | 221° |
| 2026-05-06 08:17 | 25.88617 | 126.28175 | 35999 ft | 437 kts | 221° |
| 2026-05-06 08:17 | 25.83866 | 126.23895 | 35325 ft | 444 kts | 221° |
| 2026-05-06 08:18 | 25.81479 | 126.21747 | 34638 ft | 442 kts | 221° |
| 2026-05-06 08:18 | 25.79089 | 126.19596 | 33893 ft | 443 kts | 221° |
| 2026-05-06 08:18 | 25.76691 | 126.17440 | 33035 ft | 444 kts | 221° |
| 2026-05-06 08:18 | 25.74296 | 126.15288 | 32228 ft | 444 kts | 221° |
| 2026-05-06 08:19 | 25.71891 | 126.13127 | 31412 ft | 445 kts | 221° |
| 2026-05-06 08:19 | 25.69480 | 126.10961 | 30568 ft | 447 kts | 221° |
| 2026-05-06 08:19 | 25.67056 | 126.08786 | 29603 ft | 449 kts | 221° |
| 2026-05-06 08:19 | 25.64620 | 126.06601 | 28571 ft | 451 kts | 221° |
| 2026-05-06 08:20 | 25.62186 | 126.04418 | 27565 ft | 451 kts | 221° |
| 2026-05-06 08:20 | 25.59752 | 126.02237 | 26837 ft | 447 kts | 221° |
| 2026-05-06 08:20 | 25.57348 | 126.00086 | 26132 ft | 442 kts | 221° |
| 2026-05-06 08:20 | 25.54971 | 125.97959 | 25447 ft | 437 kts | 221° |
| 2026-05-06 08:21 | 25.52620 | 125.95854 | 24764 ft | 432 kts | 221° |
| 2026-05-06 08:21 | 25.50288 | 125.93767 | 24065 ft | 429 kts | 221° |
| 2026-05-06 08:21 | 25.47976 | 125.91700 | 23339 ft | 426 kts | 221° |
| 2026-05-06 08:21 | 25.45699 | 125.89649 | 22575 ft | 421 kts | 224° |
| 2026-05-06 08:22 | 25.43656 | 125.87374 | 21878 ft | 413 kts | 231° |
| 2026-05-06 08:22 | 25.41932 | 125.84844 | 21023 ft | 410 kts | 240° |
| 2026-05-06 08:22 | 25.40538 | 125.82130 | 20367 ft | 404 kts | 242° |
| 2026-05-06 08:22 | 25.39187 | 125.79466 | 19718 ft | 400 kts | 242° |
| 2026-05-06 08:23 | 25.37815 | 125.76805 | 19073 ft | 396 kts | 242° |
| 2026-05-06 08:23 | 25.36444 | 125.74176 | 18423 ft | 393 kts | 242° |
| 2026-05-06 08:23 | 25.34995 | 125.71633 | 17704 ft | 392 kts | 234° |
| 2026-05-06 08:23 | 25.33048 | 125.69529 | 17011 ft | 391 kts | 223° |
| 2026-05-06 08:24 | 25.31005 | 125.67570 | 16340 ft | 386 kts | 224° |
| 2026-05-06 08:24 | 25.28993 | 125.65623 | 15699 ft | 382 kts | 224° |
| 2026-05-06 08:24 | 25.27010 | 125.63689 | 15076 ft | 378 kts | 224° |
| 2026-05-06 08:24 | 25.25060 | 125.61776 | 14455 ft | 374 kts | 224° |
| 2026-05-06 08:25 | 25.23126 | 125.59873 | 13864 ft | 370 kts | 224° |
| 2026-05-06 08:25 | 25.21212 | 125.57986 | 13194 ft | 367 kts | 224° |
| 2026-05-06 08:25 | 25.19320 | 125.56121 | 12558 ft | 363 kts | 224° |
| 2026-05-06 08:25 | 25.17444 | 125.54270 | 11946 ft | 360 kts | 224° |
| 2026-05-06 08:26 | 25.15585 | 125.52438 | 11353 ft | 356 kts | 224° |
| 2026-05-06 08:26 | 25.13752 | 125.50632 | 11019 ft | 346 kts | 224° |
| 2026-05-06 08:26 | 25.11993 | 125.48901 | 10865 ft | 332 kts | 224° |
| 2026-05-06 08:26 | 25.10304 | 125.47240 | 10716 ft | 319 kts | 224° |
| 2026-05-06 08:27 | 25.08684 | 125.45647 | 10582 ft | 307 kts | 224° |
| 2026-05-06 08:27 | 25.07120 | 125.44108 | 10451 ft | 296 kts | 224° |
| 2026-05-06 08:27 | 25.05609 | 125.42622 | 10327 ft | 285 kts | 224° |
| 2026-05-06 08:27 | 25.04154 | 125.41191 | 10211 ft | 276 kts | 224° |
| 2026-05-06 08:28 | 25.02747 | 125.39807 | 10101 ft | 266 kts | 225° |
| 2026-05-06 08:28 | 25.01386 | 125.38470 | 9963 ft | 259 kts | 224° |
| 2026-05-06 08:28 | 25.00043 | 125.37149 | 9665 ft | 258 kts | 225° |
| 2026-05-06 08:28 | 24.98712 | 125.35840 | 9380 ft | 256 kts | 224° |
| 2026-05-06 08:29 | 24.97388 | 125.34539 | 9100 ft | 254 kts | 224° |
| 2026-05-06 08:29 | 24.96072 | 125.33246 | 8818 ft | 253 kts | 224° |
| 2026-05-06 08:29 | 24.94763 | 125.31961 | 8535 ft | 251 kts | 224° |
| 2026-05-06 08:29 | 24.93461 | 125.30683 | 8255 ft | 250 kts | 224° |
| 2026-05-06 08:30 | 24.92164 | 125.29411 | 7981 ft | 249 kts | 224° |
| 2026-05-06 08:30 | 24.90873 | 125.28145 | 7702 ft | 248 kts | 224° |
| 2026-05-06 08:30 | 24.89585 | 125.26882 | 7427 ft | 248 kts | 224° |
| 2026-05-06 08:30 | 24.88300 | 125.25623 | 7150 ft | 247 kts | 224° |
| 2026-05-06 08:31 | 24.87015 | 125.24364 | 6873 ft | 247 kts | 224° |
| 2026-05-06 08:31 | 24.85735 | 125.23110 | 6570 ft | 247 kts | 224° |
| 2026-05-06 08:31 | 24.84453 | 125.21854 | 6288 ft | 246 kts | 223° |
| 2026-05-06 08:31 | 24.83172 | 125.20600 | 6006 ft | 248 kts | 223° |
| 2026-05-06 08:32 | 24.81878 | 125.19333 | 5713 ft | 250 kts | 223° |
| 2026-05-06 08:32 | 24.80570 | 125.18056 | 5421 ft | 252 kts | 223° |
| 2026-05-06 08:32 | 24.79257 | 125.16772 | 5121 ft | 253 kts | 223° |
| 2026-05-06 08:32 | 24.77931 | 125.15512 | 4868 ft | 251 kts | 219° |
| 2026-05-06 08:33 | 24.76571 | 125.14333 | 4636 ft | 253 kts | 218° |
| 2026-05-06 08:33 | 24.75183 | 125.13148 | 4394 ft | 253 kts | 218° |
| 2026-05-06 08:33 | 24.73782 | 125.11974 | 4142 ft | 253 kts | 213° |
| 2026-05-06 08:33 | 24.72117 | 125.11452 | 3887 ft | 253 kts | 178° |
| 2026-05-06 08:34 | 24.70487 | 125.12112 | 3650 ft | 254 kts | 142° |
| 2026-05-06 08:34 | 24.68240 | 125.15122 | 3035 ft | 257 kts | 128° |
| 2026-05-06 08:34 | 24.67367 | 125.16786 | 2899 ft | 250 kts | 104° |
| 2026-05-06 08:35 | 24.67432 | 125.18641 | 2798 ft | 243 kts | 71° |
| 2026-05-06 08:35 | 24.68199 | 125.20290 | 2532 ft | 243 kts | 58° |
| 2026-05-06 08:35 | 24.69281 | 125.21714 | 2225 ft | 244 kts | 41° |
| 2026-05-06 08:35 | 24.70600 | 125.22893 | 1909 ft | 246 kts | 37° |
| 2026-05-06 08:36 | 24.71959 | 125.24045 | 1584 ft | 247 kts | 38° |
| 2026-05-06 08:36 | 24.73284 | 125.25185 | 1254 ft | 235 kts | 38° |
| 2026-05-06 08:36 | 24.74510 | 125.26246 | 954 ft | 214 kts | 39° |
| 2026-05-06 08:36 | 24.75631 | 125.27216 | 684 ft | 195 kts | 40° |
| 2026-05-06 08:37 | 24.76650 | 125.28099 | 423 ft | 179 kts | 41° |
| 2026-05-06 08:37 | 24.77277 | 125.28642 | 277 ft | 167 kts | 41° |
| 2026-05-06 08:37 | 24.78137 | 125.29385 | 158 ft | 144 kts | 42° |
| 2026-05-06 08:37 | 24.78896 | 125.30051 | 734 ft | 140 kts | 42° |
| 2026-05-06 08:38 | 24.79665 | 125.30772 | 1684 ft | 151 kts | 41° |
| 2026-05-06 08:38 | 24.80586 | 125.31638 | 2239 ft | 191 kts | 38° |
| 2026-05-06 08:38 | 24.81712 | 125.32613 | 2896 ft | 220 kts | 38° |
| 2026-05-06 08:38 | 24.82956 | 125.33686 | 3510 ft | 232 kts | 39° |
| 2026-05-06 08:39 | 24.83849 | 125.35148 | 4065 ft | 234 kts | 78° |
| 2026-05-06 08:39 | 24.83719 | 125.36897 | 4679 ft | 234 kts | 117° |
| 2026-05-06 08:39 | 24.82667 | 125.38226 | 4996 ft | 233 kts | 151° |
| 2026-05-06 08:39 | 24.81145 | 125.38727 | 5007 ft | 229 kts | 185° |
| 2026-05-06 08:40 | 24.79625 | 125.38277 | 5014 ft | 232 kts | 208° |
| 2026-05-06 08:40 | 24.78172 | 125.37387 | 5028 ft | 241 kts | 212° |
| 2026-05-06 08:40 | 24.76736 | 125.36422 | 5008 ft | 242 kts | 213° |
| 2026-05-06 08:40 | 24.75298 | 125.35448 | 4997 ft | 242 kts | 213° |
| 2026-05-06 08:41 | 24.73860 | 125.34481 | 4995 ft | 242 kts | 213° |
| 2026-05-06 08:41 | 24.72418 | 125.33520 | 5002 ft | 242 kts | 212° |
| 2026-05-06 08:41 | 24.70973 | 125.32562 | 4874 ft | 242 kts | 212° |
| 2026-05-06 08:41 | 24.69570 | 125.31636 | 4788 ft | 229 kts | 212° |
| 2026-05-06 08:42 | 24.68246 | 125.30766 | 4674 ft | 215 kts | 212° |
| 2026-05-06 08:42 | 24.67001 | 125.29949 | 4577 ft | 202 kts | 212° |
| 2026-05-06 08:42 | 24.65820 | 125.29174 | 4333 ft | 198 kts | 212° |
| 2026-05-06 08:42 | 24.64630 | 125.28393 | 3996 ft | 199 kts | 212° |
| 2026-05-06 08:43 | 24.63443 | 125.27616 | 3746 ft | 197 kts | 212° |
| 2026-05-06 08:43 | 24.62297 | 125.26866 | 3640 ft | 188 kts | 212° |
| 2026-05-06 08:43 | 24.61295 | 125.25991 | 3525 ft | 185 kts | 237° |
| 2026-05-06 08:43 | 24.60964 | 125.24644 | 3477 ft | 188 kts | 272° |
| 2026-05-06 08:44 | 24.61444 | 125.23303 | 3408 ft | 195 kts | 306° |
| 2026-05-06 08:44 | 24.62299 | 125.22111 | 3236 ft | 202 kts | 306° |
| 2026-05-06 08:44 | 24.63152 | 125.20921 | 3175 ft | 195 kts | 307° |
| 2026-05-06 08:44 | 24.64001 | 125.19773 | 3110 ft | 193 kts | 314° |
| 2026-05-06 08:45 | 24.65197 | 125.19192 | 3041 ft | 190 kts | 1° |
| 2026-05-06 08:45 | 24.66423 | 125.19625 | 2889 ft | 185 kts | 28° |
| 2026-05-06 08:45 | 24.67517 | 125.20343 | 2651 ft | 180 kts | 32° |
| 2026-05-06 08:45 | 24.68516 | 125.21103 | 2442 ft | 167 kts | 36° |
| 2026-05-06 08:46 | 24.69396 | 125.21835 | 2177 ft | 158 kts | 37° |
| 2026-05-06 08:46 | 24.70241 | 125.22571 | 1961 ft | 153 kts | 39° |
| 2026-05-06 08:46 | 24.71082 | 125.23299 | 1745 ft | 151 kts | 38° |
| 2026-05-06 08:46 | 24.71902 | 125.24010 | 1540 ft | 153 kts | 38° |
| 2026-05-06 08:47 | 24.72740 | 125.24737 | 1333 ft | 154 kts | 38° |
| 2026-05-06 08:47 | 24.73587 | 125.25471 | 1148 ft | 153 kts | 38° |
| 2026-05-06 08:47 | 24.74418 | 125.26186 | 937 ft | 153 kts | 38° |
| 2026-05-06 08:47 | 24.75249 | 125.26901 | 751 ft | 151 kts | 39° |
| 2026-05-06 08:48 | 24.76070 | 125.27605 | 551 ft | 148 kts | 41° |
| 2026-05-06 08:48 | 24.76861 | 125.28286 | 333 ft | 141 kts | 41° |
| 2026-05-06 08:48 | 24.77616 | 125.28935 | 156 ft | 135 kts | 41° |
| 2026-05-06 08:48 | 24.78267 | 125.29502 | 147 ft | 99 kts | 38° |
| 2026-05-06 08:49 | 24.78688 | 125.29865 | 141 ft | 55 kts | 38° |
| 2026-05-06 08:49 | 24.78899 | 125.30051 | 143 ft | 28 kts | 49° |
| 2026-05-06 08:49 | 24.78976 | 125.30131 | 145 ft | 7 kts | 334° |
| 2026-05-06 08:49 | 24.78981 | 125.30096 | 145 ft | 5 kts | 232° |
| 2026-05-06 08:50 | 24.78934 | 125.30074 | 143 ft | 10 kts | 209° |
| 2026-05-06 08:50 | 24.78864 | 125.30014 | 143 ft | 15 kts | 218° |
| 2026-05-06 08:50 | 24.78774 | 125.29937 | 143 ft | 18 kts | 218° |
| 2026-05-06 08:50 | 24.78662 | 125.29841 | 141 ft | 22 kts | 218° |
| 2026-05-06 08:51 | 24.78537 | 125.29732 | 144 ft | 24 kts | 218° |
| 2026-05-06 08:51 | 24.78404 | 125.29618 | 145 ft | 24 kts | 218° |
| 2026-05-06 08:51 | 24.78278 | 125.29509 | 147 ft | 23 kts | 218° |
| 2026-05-06 08:51 | 24.78150 | 125.29401 | 145 ft | 18 kts | 209° |
| 2026-05-06 08:52 | 24.78078 | 125.29446 | 144 ft | 14 kts | 128° |
| 2026-05-06 08:52 | 24.78013 | 125.29537 | 143 ft | 17 kts | 128° |
| 2026-05-06 08:52 | 24.78023 | 125.29621 | 143 ft | 11 kts | 38° |
| 2026-05-06 08:52 | 24.78054 | 125.29667 | 144 ft | 6 kts | 96° |
| 2026-05-06 08:53 | 24.78029 | 125.29703 | 145 ft | 6 kts | 127° |
| 2026-05-06 08:53 | 24.78024 | 125.29711 | 145 ft | 0 kts | 127° |